Time;durP1;ratioP1;P1;durP2;ratioP2;P2;SDS_P1;SDS_P2;PMS_P1;PMS_P2;Temp;Humidity;BMP_temperature;BMP_pressure;BME280_temperature;BME280_humidity;BME280_pressure;Samples;Min_cycle;Max_cycle;Signal;HPM_P1;HPM_P2
2022/02/01 00:04:56;;;;;;;21.92;11.60;;;;;;;0.49;100.00;98012.03;10447633;28;20049;-84
2022/02/01 00:10:10;;;;;;;17.58;10.52;;;;;;;0.56;100.00;98013.28;10495475;28;20071;-87
2022/02/01 00:33:08;;;;;;;15.18;8.73;;;;;;;0.56;100.00;98007.97;10430087;28;20079;-85
2022/02/01 00:37:09;;;;;;;13.13;8.35;;;;;;;0.63;100.00;98039.38;10451490;28;20120;-85
2022/02/01 00:42:16;;;;;;;15.18;8.38;;;;;;;0.61;100.00;98056.22;10433567;28;20056;-86
2022/02/01 00:47:20;;;;;;;14.70;8.23;;;;;;;0.67;100.00;98062.91;10438590;28;20045;-83
2022/02/01 00:52:25;;;;;;;10.07;6.93;;;;;;;0.64;100.00;98073.72;10437767;28;20068;-84
2022/02/01 00:57:30;;;;;;;12.75;7.68;;;;;;;0.65;100.00;98095.78;10448153;28;20056;-83
2022/02/01 01:02:34;;;;;;;8.85;6.20;;;;;;;0.66;100.00;98100.09;10455196;28;20069;-84
2022/02/01 01:07:38;;;;;;;10.77;6.38;;;;;;;0.63;100.00;98097.69;10434592;28;20052;-83
2022/02/01 01:12:53;;;;;;;10.88;7.25;;;;;;;0.67;100.00;98097.38;10434779;28;20053;-83
2022/02/01 01:44:50;;;;;;;9.27;6.53;;;;;;;0.76;100.00;98104.69;10413150;28;20045;-82
2022/02/01 01:55:16;;;;;;;13.43;8.18;;;;;;;0.67;100.00;98126.53;10446053;28;20049;-83
2022/02/01 02:00:35;;;;;;;10.93;9.35;;;;;;;0.69;100.00;98123.75;10431744;28;20076;-83
2022/02/01 02:05:38;;;;;;;12.95;9.63;;;;;;;0.66;100.00;98124.84;10430541;28;20056;-83
2022/02/01 02:10:51;;;;;;;9.50;7.78;;;;;;;0.71;100.00;98121.84;10435574;28;20486;-83
2022/02/01 02:15:59;;;;;;;8.82;7.65;;;;;;;0.72;100.00;98112.94;10449452;28;20076;-83
2022/02/01 02:21:05;;;;;;;10.50;8.25;;;;;;;0.79;100.00;98132.78;10450730;28;20048;-83
2022/02/01 02:26:12;;;;;;;10.68;8.65;;;;;;;0.79;100.00;98146.03;10429226;28;20045;-85
2022/02/01 02:31:18;;;;;;;10.07;8.98;;;;;;;0.74;100.00;98143.69;10429482;28;20069;-85
2022/02/01 02:36:23;;;;;;;11.70;10.07;;;;;;;0.76;100.00;98157.72;10434147;28;20048;-83
2022/02/01 02:41:34;;;;;;;12.63;10.27;;;;;;;0.81;100.00;98159.19;10431875;28;20041;-84
2022/02/01 02:46:39;;;;;;;14.68;9.95;;;;;;;0.77;100.00;98170.00;10458577;28;20041;-83
2022/02/01 02:51:45;;;;;;;13.20;11.07;;;;;;;0.72;100.00;98164.16;10454940;28;20056;-84
2022/02/01 02:56:50;;;;;;;13.40;9.90;;;;;;;0.67;100.00;98171.59;10471108;28;20052;-83
2022/02/01 03:01:55;;;;;;;15.13;11.68;;;;;;;0.70;100.00;98163.44;10429564;28;20143;-83
2022/02/01 03:07:02;;;;;;;17.67;11.73;;;;;;;0.74;100.00;98153.47;10440219;28;20124;-83
2022/02/01 03:12:08;;;;;;;15.25;11.32;;;;;;;0.74;100.00;98135.75;10445353;28;20053;-84
2022/02/01 03:17:19;;;;;;;15.38;11.27;;;;;;;0.70;100.00;98147.53;10446067;28;20098;-83
2022/02/01 03:22:25;;;;;;;13.52;9.90;;;;;;;0.68;100.00;98136.19;10447408;28;20037;-82
2022/02/01 03:27:32;;;;;;;15.00;10.88;;;;;;;0.66;100.00;98123.97;10429699;28;20045;-84
2022/02/01 03:32:35;;;;;;;13.93;10.07;;;;;;;0.55;100.00;98114.94;10421766;28;20148;-84
2022/02/01 03:37:40;;;;;;;15.52;11.25;;;;;;;0.50;100.00;98111.78;10431400;28;20513;-83
2022/02/01 03:42:44;;;;;;;14.63;10.50;;;;;;;0.41;100.00;98109.78;10421584;28;20049;-83
2022/02/01 03:47:47;;;;;;;14.38;11.00;;;;;;;0.35;100.00;98104.88;10448814;28;20521;-84
2022/02/01 03:52:52;;;;;;;14.02;10.30;;;;;;;0.28;100.00;98123.84;10429520;28;20056;-82
2022/02/01 03:57:55;;;;;;;16.13;11.70;;;;;;;0.27;100.00;98135.41;10437015;28;20053;-83
2022/02/01 04:03:03;;;;;;;16.15;12.00;;;;;;;0.27;100.00;98124.81;10451575;28;20103;-83
2022/02/01 04:08:11;;;;;;;15.65;11.32;;;;;;;0.26;100.00;98128.41;10456236;28;20050;-86
2022/02/01 04:13:14;;;;;;;17.75;11.30;;;;;;;0.31;100.00;98133.41;10446729;28;20045;-83
2022/02/01 04:18:19;;;;;;;13.70;10.93;;;;;;;0.36;100.00;98131.25;10441215;28;20095;-85
2022/02/01 04:23:25;;;;;;;17.92;11.18;;;;;;;0.39;100.00;98143.47;10454946;28;20147;-82
2022/02/01 04:28:28;;;;;;;19.33;11.50;;;;;;;0.47;100.00;98141.16;10441362;28;20395;-87
2022/02/01 04:33:34;;;;;;;19.30;10.63;;;;;;;0.52;100.00;98149.66;10455111;28;20086;-83
2022/02/01 04:38:43;;;;;;;16.98;12.15;;;;;;;0.52;100.00;98152.28;10437855;28;20087;-83
2022/02/01 04:43:47;;;;;;;16.63;11.73;;;;;;;0.53;100.00;98146.00;10456254;28;20097;-83
2022/02/01 04:48:52;;;;;;;18.73;12.60;;;;;;;0.55;100.00;98160.03;10463832;28;20045;-83
2022/02/01 04:53:57;;;;;;;18.50;12.38;;;;;;;0.51;100.00;98158.56;10442822;28;20136;-83
2022/02/01 04:59:01;;;;;;;20.40;13.38;;;;;;;0.51;100.00;98152.38;10444296;28;20080;-83
2022/02/01 05:04:07;;;;;;;16.98;12.60;;;;;;;0.51;100.00;98147.94;10443462;28;20087;-83
2022/02/01 05:09:12;;;;;;;22.80;14.40;;;;;;;0.48;100.00;98150.81;10447519;28;20052;-84
2022/02/01 05:14:19;;;;;;;21.67;13.95;;;;;;;0.47;100.00;98149.09;10447394;28;20099;-84
2022/02/01 05:19:33;;;;;;;18.67;12.63;;;;;;;0.52;100.00;98148.78;10461523;28;20057;-84
2022/02/01 05:24:38;;;;;;;16.48;11.75;;;;;;;0.57;100.00;98144.88;10443916;28;20493;-84
2022/02/01 05:29:45;;;;;;;15.93;11.93;;;;;;;0.64;100.00;98141.81;10451218;28;20068;-85
2022/02/01 05:34:53;;;;;;;17.20;11.68;;;;;;;0.73;100.00;98135.88;10457740;28;20049;-86
2022/02/01 05:39:58;;;;;;;14.15;10.32;;;;;;;0.79;100.00;98129.28;10407367;28;20069;-84
2022/02/01 05:45:01;;;;;;;12.43;9.23;;;;;;;0.85;100.00;98135.00;10393600;28;20091;-86
2022/02/01 05:50:05;;;;;;;13.02;8.02;;;;;;;0.88;100.00;98145.38;10399091;28;20049;-85
2022/02/01 05:55:11;;;;;;;10.32;7.25;;;;;;;0.96;100.00;98162.59;10410421;28;20045;-84
2022/02/01 06:00:17;;;;;;;9.30;7.18;;;;;;;0.99;100.00;98173.81;10418999;28;20069;-85
2022/02/01 06:05:21;;;;;;;10.35;6.53;;;;;;;1.01;100.00;98186.97;10436251;28;20041;-89
2022/02/01 06:10:25;;;;;;;8.75;6.18;;;;;;;1.01;100.00;98182.53;10412053;28;20444;-86
2022/02/01 06:15:30;;;;;;;10.00;5.40;;;;;;;0.99;100.00;98179.13;10426269;28;20057;-86
2022/02/01 06:20:33;;;;;;;6.45;4.07;;;;;;;1.01;100.00;98186.97;10399732;28;20053;-85
2022/02/01 06:25:48;;;;;;;8.20;3.40;;;;;;;1.04;100.00;98192.06;10404323;28;20046;-84
2022/02/01 06:30:52;;;;;;;9.85;3.10;;;;;;;1.04;100.00;98202.69;10400535;28;20422;-86
2022/02/01 06:35:57;;;;;;;8.45;2.70;;;;;;;1.06;100.00;98219.34;10387712;28;20421;-85
2022/02/01 06:41:01;;;;;;;9.93;2.80;;;;;;;1.05;100.00;98220.31;10387021;28;20144;-85
2022/02/01 06:46:06;;;;;;;13.65;3.10;;;;;;;1.04;100.00;98218.59;10387847;28;20095;-85
2022/02/01 06:51:09;;;;;;;14.57;2.95;;;;;;;1.03;100.00;98219.56;10384423;28;20074;-86
2022/02/01 06:56:19;;;;;;;11.90;3.03;;;;;;;1.03;100.00;98216.91;10390576;28;20053;-85
2022/02/01 07:01:22;;;;;;;12.05;2.80;;;;;;;1.22;100.00;98241.22;10384754;28;20576;-84
2022/02/01 07:06:29;;;;;;;12.68;2.70;;;;;;;1.53;100.00;98220.47;10388363;28;20073;-85
2022/02/01 07:11:37;;;;;;;21.25;2.88;;;;;;;1.56;100.00;98219.41;10388197;28;20561;-85
2022/02/01 07:16:40;;;;;;;13.38;2.45;;;;;;;1.54;100.00;98214.22;10385369;28;20489;-85
2022/02/01 07:21:44;;;;;;;16.73;2.50;;;;;;;1.39;100.00;98202.00;10363305;28;20049;-85
2022/02/01 07:26:56;;;;;;;14.88;2.70;;;;;;;1.28;100.00;98213.41;10378702;28;20048;-86
2022/02/01 07:31:59;;;;;;;15.27;2.58;;;;;;;1.25;100.00;98228.66;10469002;28;20084;-85
2022/02/01 07:37:02;;;;;;;18.88;2.83;;;;;;;1.20;100.00;98221.03;10479866;28;20052;-86
2022/02/01 07:42:07;;;;;;;19.40;2.88;;;;;;;1.18;100.00;98244.16;10470061;28;20139;-86
2022/02/01 07:47:17;;;;;;;21.67;2.53;;;;;;;1.19;100.00;98232.59;10429537;28;20052;-86
2022/02/01 07:52:21;;;;;;;17.10;2.95;;;;;;;1.16;100.00;98246.94;10426087;28;20053;-86
2022/02/01 07:57:26;;;;;;;17.42;2.85;;;;;;;1.14;100.00;98230.28;10430224;28;20470;-85
2022/02/01 08:02:29;;;;;;;17.27;2.70;;;;;;;1.13;100.00;98246.31;10426859;28;20532;-86
2022/02/01 08:07:51;;;;;;;13.90;2.60;;;;;;;1.14;100.00;98235.56;10451274;28;20045;-86
2022/02/01 08:18:25;;;;;;;17.80;2.90;;;;;;;1.14;100.00;98237.41;10430233;28;20048;-85
2022/02/01 08:23:28;;;;;;;20.80;3.55;;;;;;;1.13;100.00;98254.28;10439461;28;20044;-84
2022/02/01 08:28:32;;;;;;;16.77;2.72;;;;;;;1.16;100.00;98244.28;10428310;28;20493;-85
2022/02/01 08:33:37;;;;;;;20.95;2.80;;;;;;;1.24;100.00;98251.72;10436101;28;20389;-84
2022/02/01 08:38:42;;;;;;;13.93;2.88;;;;;;;1.24;100.00;98257.03;10423503;28;20140;-85
2022/02/01 08:43:47;;;;;;;20.48;3.13;;;;;;;1.27;100.00;98240.91;10446269;28;20067;-85
2022/02/01 08:48:50;;;;;;;15.98;3.40;;;;;;;1.31;100.00;98214.97;10436725;28;20057;-85
2022/02/01 08:53:58;;;;;;;21.55;3.67;;;;;;;1.31;100.00;98210.50;10446499;28;20040;-86
2022/02/01 08:59:02;;;;;;;17.50;2.78;;;;;;;1.33;100.00;98213.06;10441317;28;20041;-85
2022/02/01 09:04:09;;;;;;;16.38;3.40;;;;;;;1.33;100.00;98199.81;10431447;28;20064;-87
2022/02/01 09:09:11;;;;;;;15.07;2.45;;;;;;;1.38;100.00;98193.22;10445547;28;20071;-84
2022/02/01 09:14:16;;;;;;;19.15;2.90;;;;;;;1.43;100.00;98194.69;10428510;28;20584;-86
2022/02/01 09:19:20;;;;;;;12.70;2.47;;;;;;;1.43;100.00;98176.97;10430967;28;20106;-86
2022/02/01 09:24:23;;;;;;;15.30;2.28;;;;;;;1.48;100.00;98152.72;10435012;28;20136;-85
2022/02/01 09:29:27;;;;;;;11.00;2.28;;;;;;;1.53;100.00;98146.13;10435801;28;20209;-86
2022/02/01 09:34:31;;;;;;;17.15;3.03;;;;;;;1.56;100.00;98129.13;10397225;28;20056;-85
2022/02/01 09:39:34;;;;;;;17.40;2.92;;;;;;;1.59;100.00;98123.59;10409032;28;20057;-85
2022/02/01 09:44:38;;;;;;;12.55;2.30;;;;;;;1.62;100.00;98133.13;10419441;28;20096;-85
2022/02/01 09:49:41;;;;;;;12.45;2.20;;;;;;;1.66;100.00;98134.63;10402078;28;20481;-85
2022/02/01 09:54:44;;;;;;;14.23;2.42;;;;;;;1.69;100.00;98139.72;10415493;28;20059;-85
2022/02/01 09:59:54;;;;;;;15.73;2.47;;;;;;;1.74;100.00;98140.22;10421956;28;20087;-85
2022/02/01 10:05:02;;;;;;;10.35;2.08;;;;;;;1.81;100.00;98101.63;10400983;28;20045;-86
2022/02/01 10:10:07;;;;;;;11.45;2.20;;;;;;;1.90;100.00;98096.59;10413117;28;20120;-85
2022/02/01 10:15:23;;;;;;;14.43;1.85;;;;;;;1.92;100.00;98076.91;10396106;28;20527;-84
2022/02/01 10:20:35;;;;;;;9.57;2.03;;;;;;;2.05;100.00;98071.53;10401728;28;20519;-84
2022/02/01 10:25:38;;;;;;;9.57;1.90;;;;;;;2.12;100.00;98059.47;10407724;28;20151;-84
2022/02/01 10:30:45;;;;;;;12.80;2.00;;;;;;;2.14;100.00;98059.34;10424667;28;20180;-83
2022/02/01 10:35:58;;;;;;;13.38;2.03;;;;;;;2.18;100.00;98058.16;10437023;28;20040;-84
2022/02/01 10:41:04;;;;;;;11.35;1.92;;;;;;;2.29;100.00;98052.84;10444334;28;20045;-83
2022/02/01 10:46:12;;;;;;;10.18;1.90;;;;;;;2.38;100.00;98037.16;10447121;28;20072;-82
2022/02/01 10:51:18;;;;;;;8.95;1.95;;;;;;;2.45;100.00;98030.41;10460486;28;20426;-84
2022/02/01 10:56:23;;;;;;;7.07;1.70;;;;;;;2.59;100.00;98000.06;10428625;28;20297;-85
2022/02/01 11:01:29;;;;;;;9.77;1.63;;;;;;;2.72;100.00;97978.66;10452582;28;20059;-86
2022/02/01 11:06:35;;;;;;;7.47;1.50;;;;;;;2.82;100.00;97973.44;10425147;28;20045;-86
2022/02/01 11:11:38;;;;;;;13.50;1.90;;;;;;;2.71;100.00;97958.34;10426310;28;20081;-84
2022/02/01 11:16:43;;;;;;;9.00;1.60;;;;;;;2.71;100.00;97929.94;10459825;28;20041;-86
2022/02/01 11:21:56;;;;;;;9.00;1.70;;;;;;;2.69;100.00;97925.72;10446837;28;20492;-83
2022/02/01 11:27:15;;;;;;;8.60;1.63;;;;;;;2.67;100.00;97932.97;10433324;28;20056;-86
2022/02/01 11:32:20;;;;;;;8.02;1.77;;;;;;;2.61;100.00;97918.34;10425618;28;20410;-84
2022/02/01 11:37:48;;;;;;;6.78;1.58;;;;;;;2.63;100.00;97897.81;10426723;28;20083;-83
2022/02/01 11:43:01;;;;;;;8.68;1.85;;;;;;;2.61;100.00;97889.09;10424091;28;20075;-86
2022/02/01 11:48:21;;;;;;;6.07;1.75;;;;;;;2.55;100.00;97860.31;10427900;28;20044;-84
2022/02/01 11:53:27;;;;;;;7.80;1.80;;;;;;;2.57;100.00;97845.09;10428158;28;20155;-84
2022/02/01 11:58:33;;;;;;;9.10;2.00;;;;;;;2.57;100.00;97847.75;10430079;28;20045;-84
2022/02/01 12:03:39;;;;;;;7.18;1.73;;;;;;;2.57;100.00;97855.72;10444569;28;20084;-84
2022/02/01 12:08:45;;;;;;;7.63;2.10;;;;;;;2.57;100.00;97835.31;10450328;28;20073;-83
2022/02/01 12:13:48;;;;;;;9.50;1.63;;;;;;;2.53;100.00;97819.75;10431666;28;20436;-85
2022/02/01 12:19:01;;;;;;;6.68;1.77;;;;;;;2.56;100.00;97792.88;10456244;28;20039;-84
2022/02/01 12:24:06;;;;;;;7.00;1.88;;;;;;;2.49;100.00;97783.72;10436459;28;20135;-84
2022/02/01 12:29:11;;;;;;;7.60;1.85;;;;;;;2.45;100.00;97770.69;10429231;28;20084;-84
2022/02/01 12:34:19;;;;;;;4.88;1.65;;;;;;;2.41;100.00;97761.25;10403217;28;20412;-84
2022/02/01 12:39:29;;;;;;;7.18;1.92;;;;;;;2.41;100.00;97745.31;10420341;28;20132;-83
2022/02/01 12:59:09;;;;;;;7.35;1.60;;;;;;;2.22;100.00;97684.88;10368739;28;20578;-83
2022/02/01 13:04:25;;;;;;;6.20;1.75;;;;;;;2.14;100.00;97677.53;10375141;28;20116;-86
2022/02/01 13:15:08;;;;;;;6.57;1.60;;;;;;;2.13;100.00;97612.06;10427079;28;20052;-85
2022/02/01 13:20:20;;;;;;;4.88;1.50;;;;;;;2.18;100.00;97578.94;10425455;28;20036;-83
2022/02/01 13:25:32;;;;;;;3.92;1.33;;;;;;;2.30;100.00;97551.31;10402303;28;20068;-84
2022/02/01 13:30:36;;;;;;;5.50;1.48;;;;;;;2.30;100.00;97556.63;10420653;28;20092;-85
2022/02/01 13:35:50;;;;;;;4.07;1.67;;;;;;;2.27;100.00;97528.53;10446856;28;20056;-81
2022/02/01 13:40:54;;;;;;;2.85;1.25;;;;;;;2.15;100.00;97513.63;10464887;28;20057;-85
2022/02/01 13:46:01;;;;;;;4.10;1.25;;;;;;;2.14;100.00;97511.94;10453873;28;20041;-85
2022/02/01 13:51:07;;;;;;;2.72;0.93;;;;;;;2.09;100.00;97492.91;10432894;28;20059;-84
2022/02/01 13:56:11;;;;;;;2.17;0.95;;;;;;;2.03;100.00;97473.00;10447518;28;20045;-86
2022/02/01 14:01:20;;;;;;;0.90;0.60;;;;;;;2.04;100.00;97442.81;10422637;28;20091;-86
2022/02/01 14:06:50;;;;;;;1.27;0.70;;;;;;;2.13;100.00;97439.38;10428494;28;20421;-85
2022/02/01 14:12:25;;;;;;;1.13;0.60;;;;;;;2.20;100.00;97420.22;10432389;28;20045;-84
2022/02/01 14:28:33;;;;;;;0.95;0.43;;;;;;;2.46;100.00;97391.38;10431041;28;20045;-86
2022/02/01 14:39:13;;;;;;;0.57;0.30;;;;;;;2.65;100.00;97382.59;10399571;28;20109;-84
2022/02/01 14:44:40;;;;;;;0.57;0.30;;;;;;;2.71;100.00;97343.97;10420649;28;20058;-84
2022/02/01 14:49:45;;;;;;;0.40;0.28;;;;;;;2.75;100.00;97327.63;10418103;28;20057;-86
2022/02/01 14:54:57;;;;;;;0.30;0.30;;;;;;;2.79;100.00;97309.56;10401540;28;20053;-85
2022/02/01 15:16:17;;;;;;;0.30;0.30;;;;;;;2.68;100.00;97270.63;10402725;28;20064;-83
2022/02/01 15:21:20;;;;;;;0.40;0.20;;;;;;;2.68;100.00;97275.94;10407875;28;20068;-86
2022/02/01 15:26:24;;;;;;;0.20;0.20;;;;;;;2.65;100.00;97275.38;10390425;28;20173;-85
2022/02/01 15:31:28;;;;;;;0.32;0.20;;;;;;;2.68;100.00;97273.28;10385006;28;20053;-83
2022/02/01 15:36:51;;;;;;;0.30;0.30;;;;;;;2.64;100.00;97263.06;10389712;28;20148;-83
2022/02/01 16:20:54;;;;;;;0.20;0.20;;;;;;;2.36;100.00;97223.03;10429621;28;20076;-86
2022/02/01 16:26:19;;;;;;;0.38;0.30;;;;;;;2.47;100.00;97231.72;10397933;28;20048;-86
2022/02/01 16:31:27;;;;;;;0.38;0.38;;;;;;;2.52;100.00;97210.03;10411991;28;20104;-88
2022/02/01 16:36:33;;;;;;;0.30;0.30;;;;;;;2.50;100.00;97235.91;10396124;28;20104;-84
2022/02/01 16:41:41;;;;;;;0.20;0.20;;;;;;;2.54;100.00;97215.19;10394603;28;20053;-85
2022/02/01 16:47:54;;;;;;;0.20;0.20;;;;;;;2.69;100.00;97218.31;10387608;28;20421;-85
2022/02/01 16:53:01;;;;;;;0.30;0.30;;;;;;;2.72;100.00;97210.88;10403371;28;20076;-84
2022/02/01 16:58:21;;;;;;;0.22;0.22;;;;;;;2.88;100.00;97222.75;10386399;28;20516;-84
2022/02/01 17:03:26;;;;;;;0.20;0.20;;;;;;;3.08;100.00;97207.56;10391840;28;20528;-86
2022/02/01 17:08:30;;;;;;;0.50;0.20;;;;;;;3.30;100.00;97233.00;10398461;28;20290;-84
2022/02/01 17:13:39;;;;;;;0.20;0.20;;;;;;;3.39;100.00;97205.50;10403684;28;20045;-84
2022/02/01 17:19:10;;;;;;;0.20;0.20;;;;;;;3.45;100.00;97196.09;10407233;28;20578;-85
2022/02/01 17:24:19;;;;;;;0.20;0.20;;;;;;;3.47;100.00;97214.63;10409636;28;20064;-84
2022/02/01 17:29:23;;;;;;;0.20;0.20;;;;;;;3.55;100.00;97209.38;10393113;28;20072;-85
2022/02/01 17:34:27;;;;;;;0.50;0.30;;;;;;;3.54;100.00;97208.53;10403873;28;20117;-86
2022/02/01 17:39:30;;;;;;;0.20;0.20;;;;;;;3.59;100.00;97194.78;10418403;28;20051;-85
2022/02/01 17:44:35;;;;;;;0.38;0.38;;;;;;;3.72;100.00;97183.78;10407098;28;20144;-85
2022/02/01 17:49:38;;;;;;;0.90;0.40;;;;;;;3.69;100.00;97192.94;10407184;28;20061;-83
2022/02/01 17:54:42;;;;;;;0.40;0.40;;;;;;;3.76;100.00;97210.97;10412577;28;20136;-85
2022/02/01 17:59:48;;;;;;;0.50;0.30;;;;;;;3.78;100.00;97195.69;10411939;28;20056;-86
2022/02/01 18:04:51;;;;;;;0.45;0.30;;;;;;;3.95;100.00;97176.22;10408827;28;20425;-87
2022/02/01 18:09:56;;;;;;;0.68;0.30;;;;;;;4.01;100.00;97180.94;10405795;28;20087;-85
2022/02/01 18:15:01;;;;;;;0.63;0.40;;;;;;;4.05;100.00;97178.00;10424522;28;20072;-85
2022/02/01 18:20:04;;;;;;;0.43;0.30;;;;;;;4.03;100.00;97174.63;10397522;28;20492;-85
2022/02/01 18:25:08;;;;;;;0.43;0.30;;;;;;;4.06;100.00;97148.53;10418550;28;20053;-84
2022/02/01 18:30:19;;;;;;;0.30;0.30;;;;;;;4.12;100.00;97173.72;10421007;28;20042;-84
2022/02/01 18:35:24;;;;;;;0.47;0.30;;;;;;;4.19;100.00;97180.13;10386264;28;20149;-84
2022/02/01 18:40:28;;;;;;;0.30;0.30;;;;;;;4.21;100.00;97194.13;10398706;28;20597;-84
2022/02/01 18:45:37;;;;;;;0.90;0.50;;;;;;;4.25;100.00;97189.31;10385912;28;20053;-86
2022/02/01 18:50:46;;;;;;;0.32;0.30;;;;;;;4.35;100.00;97186.59;10387379;28;20140;-86
2022/02/01 18:56:11;;;;;;;2.30;0.47;;;;;;;4.41;100.00;97162.00;10403586;28;20072;-84
2022/02/01 19:06:53;;;;;;;0.50;0.50;;;;;;;4.43;100.00;97160.00;10384688;28;20049;-85
2022/02/01 19:11:59;;;;;;;0.68;0.47;;;;;;;4.44;100.00;97167.00;10387590;28;20144;-86
2022/02/01 19:17:12;;;;;;;0.57;0.45;;;;;;;4.55;100.00;97163.28;10385807;28;20077;-85
2022/02/01 19:22:15;;;;;;;0.57;0.40;;;;;;;4.60;100.00;97134.28;10381822;28;20059;-85
2022/02/01 19:27:20;;;;;;;0.50;0.30;;;;;;;4.51;100.00;97149.44;10388891;28;20131;-83
2022/02/01 19:32:26;;;;;;;1.08;0.30;;;;;;;4.61;100.00;97150.16;10400721;28;20437;-85
2022/02/01 19:37:29;;;;;;;1.13;0.55;;;;;;;4.85;100.00;97137.13;10405790;28;20056;-85
2022/02/01 19:42:41;;;;;;;1.55;0.60;;;;;;;4.84;100.00;97130.97;10397838;28;20411;-84
2022/02/01 19:47:45;;;;;;;1.70;0.55;;;;;;;4.87;100.00;97140.50;10410223;28;20197;-85
2022/02/01 19:52:49;;;;;;;2.13;0.73;;;;;;;4.87;100.00;97137.81;10398549;28;20073;-83
2022/02/01 19:57:54;;;;;;;1.70;0.63;;;;;;;4.89;100.00;97159.84;10396397;28;20073;-82
2022/02/01 20:03:02;;;;;;;4.15;0.80;;;;;;;4.99;100.00;97163.25;10388455;28;20135;-86
2022/02/01 20:08:10;;;;;;;2.08;0.90;;;;;;;4.92;100.00;97149.69;10395898;28;20057;-83
2022/02/01 20:13:14;;;;;;;2.67;0.70;;;;;;;5.02;100.00;97144.28;10420494;28;20075;-84
2022/02/01 20:18:18;;;;;;;3.00;1.00;;;;;;;5.20;100.00;97162.91;10396299;28;20056;-85
2022/02/01 20:23:21;;;;;;;3.80;1.10;;;;;;;5.31;100.00;97150.25;10407240;28;20049;-84
2022/02/01 20:28:28;;;;;;;3.88;0.90;;;;;;;5.33;100.00;97162.44;10398493;28;20052;-85
2022/02/01 20:33:40;;;;;;;3.97;1.10;;;;;;;5.24;100.00;97152.72;10388542;28;20049;-82
2022/02/01 20:38:49;;;;;;;3.78;0.98;;;;;;;5.33;100.00;97164.28;10403661;28;20472;-84
2022/02/01 20:43:54;;;;;;;4.95;1.30;;;;;;;5.41;100.00;97158.97;10405900;28;20494;-83
2022/02/01 20:49:01;;;;;;;6.03;1.70;;;;;;;5.46;100.00;97167.38;10400703;28;20076;-83
2022/02/01 20:54:05;;;;;;;4.70;1.30;;;;;;;5.47;100.00;97190.38;10389979;28;20093;-84
2022/02/01 20:59:08;;;;;;;4.97;1.20;;;;;;;5.47;100.00;97200.25;10391936;28;20045;-84
2022/02/01 21:04:13;;;;;;;6.32;1.38;;;;;;;5.49;100.00;97196.41;10394215;28;20052;-85
2022/02/01 21:09:23;;;;;;;5.85;1.50;;;;;;;5.46;100.00;97217.25;10418643;28;20075;-84
2022/02/01 21:14:26;;;;;;;7.72;1.85;;;;;;;5.45;100.00;97197.75;10389481;28;20529;-84
2022/02/01 21:19:31;;;;;;;7.82;1.90;;;;;;;5.38;100.00;97202.88;10386506;28;20048;-84
2022/02/01 21:24:34;;;;;;;8.88;2.08;;;;;;;5.32;100.00;97195.47;10377782;28;20077;-84
2022/02/01 21:29:39;;;;;;;7.50;1.80;;;;;;;5.22;100.00;97198.28;10392822;28;20454;-83
2022/02/01 21:34:44;;;;;;;6.03;1.40;;;;;;;5.06;100.00;97206.19;10382589;28;20532;-84
2022/02/01 21:39:48;;;;;;;7.32;1.48;;;;;;;4.96;100.00;97208.94;10388533;28;20051;-84
2022/02/01 21:44:52;;;;;;;7.50;1.70;;;;;;;4.85;100.00;97215.38;10388244;28;20587;-83
2022/02/01 21:49:56;;;;;;;8.18;1.50;;;;;;;4.66;100.00;97263.56;10386072;28;20053;-85
2022/02/01 21:55:03;;;;;;;3.75;0.95;;;;;;;4.44;100.00;97220.34;10406477;28;20117;-84
2022/02/01 22:00:10;;;;;;;5.97;1.20;;;;;;;4.21;100.00;97236.78;10405874;28;20445;-85
2022/02/01 22:05:14;;;;;;;5.07;1.10;;;;;;;4.00;100.00;97253.88;10386310;28;20045;-85
2022/02/01 22:10:18;;;;;;;3.35;0.93;;;;;;;3.93;100.00;97260.81;10407124;28;20066;-84
2022/02/01 22:15:22;;;;;;;2.42;0.63;;;;;;;3.92;100.00;97253.81;10405711;28;20901;-85
2022/02/01 22:20:27;;;;;;;2.97;0.80;;;;;;;3.86;100.00;97257.03;10385919;28;20441;-84
2022/02/01 22:25:30;;;;;;;5.25;1.20;;;;;;;3.98;100.00;97269.19;10383775;28;20068;-85
2022/02/01 22:30:33;;;;;;;7.75;1.75;;;;;;;4.01;100.00;97268.88;10383242;28;20045;-84
2022/02/01 22:35:41;;;;;;;8.10;1.52;;;;;;;4.09;100.00;97256.63;10397625;28;20085;-87
2022/02/01 22:40:46;;;;;;;9.30;1.73;;;;;;;3.99;100.00;97260.19;10399849;28;20117;-85
2022/02/01 22:45:49;;;;;;;10.80;1.90;;;;;;;3.96;100.00;97262.34;10385400;28;20056;-85
2022/02/01 22:50:54;;;;;;;8.80;1.90;;;;;;;3.99;100.00;97278.03;10381553;28;20391;-84
2022/02/01 22:55:57;;;;;;;14.35;2.08;;;;;;;4.06;100.00;97262.28;10385252;28;20053;-86
2022/02/01 23:01:00;;;;;;;8.05;1.65;;;;;;;4.04;100.00;97265.09;10427601;23;20060;-62
2022/02/01 23:06:08;;;;;;;9.23;1.90;;;;;;;4.01;100.00;97244.91;10394014;28;20046;-60
2022/02/01 23:11:19;;;;;;;10.48;2.30;;;;;;;4.11;100.00;97266.19;10359808;28;20097;-63
2022/02/01 23:22:59;;;;;;;9.70;2.13;;;;;;;4.21;100.00;97252.78;10385036;28;19920;-62
2022/02/01 23:28:03;;;;;;;11.95;2.25;;;;;;;4.31;100.00;97240.22;10364341;28;20472;-62
2022/02/01 23:33:12;;;;;;;13.63;2.60;;;;;;;4.29;100.00;97244.03;10380500;28;20108;-62
2022/02/01 23:43:50;;;;;;;12.75;2.42;;;;;;;4.43;100.00;97278.19;10391596;28;20053;-63
2022/02/01 23:48:57;;;;;;;9.23;2.17;;;;;;;4.43;100.00;97278.19;10388209;28;20038;-60
2022/02/01 23:54:02;;;;;;;9.93;2.00;;;;;;;4.42;100.00;97271.19;10380468;28;20452;-62
2022/02/01 23:59:13;;;;;;;11.45;2.28;;;;;;;4.41;100.00;97277.50;10384694;28;20077;-62
